sensor_id;sensor_type;location;lat;lon;timestamp;pressure;altitude;pressure_sealevel;temperature;humidity
73457;BME280;61691;53.072;6.582;2023-08-06T00:01:09;100658.81;;;14.91;82.24
73457;BME280;61691;53.072;6.582;2023-08-06T00:03:36;100640.97;;;14.84;82.41
73457;BME280;61691;53.072;6.582;2023-08-06T00:06:05;100651.63;;;14.84;82.50
73457;BME280;61691;53.072;6.582;2023-08-06T00:08:31;100649.31;;;14.81;82.46
73457;BME280;61691;53.072;6.582;2023-08-06T00:10:58;100635.97;;;14.81;82.25
73457;BME280;61691;53.072;6.582;2023-08-06T00:13:24;100643.78;;;14.82;82.66
73457;BME280;61691;53.072;6.582;2023-08-06T00:15:51;100649.81;;;14.92;82.33
73457;BME280;61691;53.072;6.582;2023-08-06T00:18:18;100637.13;;;14.86;82.62
73457;BME280;61691;53.072;6.582;2023-08-06T00:20:45;100633.13;;;14.82;82.62
73457;BME280;61691;53.072;6.582;2023-08-06T00:23:11;100632.13;;;14.75;82.50
73457;BME280;61691;53.072;6.582;2023-08-06T00:25:38;100626.97;;;14.65;82.60
73457;BME280;61691;53.072;6.582;2023-08-06T00:28:05;100638.13;;;14.69;82.70
73457;BME280;61691;53.072;6.582;2023-08-06T00:30:31;100646.47;;;14.74;82.68
73457;BME280;61691;53.072;6.582;2023-08-06T00:32:58;100644.47;;;14.76;82.78
73457;BME280;61691;53.072;6.582;2023-08-06T00:35:25;100625.63;;;14.61;82.95
73457;BME280;61691;53.072;6.582;2023-08-06T00:37:51;100646.47;;;14.74;83.20
73457;BME280;61691;53.072;6.582;2023-08-06T00:40:20;100641.47;;;14.71;83.07
73457;BME280;61691;53.072;6.582;2023-08-06T00:42:48;100623.09;;;14.60;83.33
73457;BME280;61691;53.072;6.582;2023-08-06T00:45:15;100628.63;;;14.66;83.36
73457;BME280;61691;53.072;6.582;2023-08-06T00:47:41;100613.63;;;14.57;83.25
73457;BME280;61691;53.072;6.582;2023-08-06T00:50:08;100628.28;;;14.69;83.11
73457;BME280;61691;53.072;6.582;2023-08-06T00:52:36;100552.06;;;14.26;82.78
73457;BME280;61691;53.072;6.582;2023-08-06T00:55:04;100637.81;;;14.80;83.31
73457;BME280;61691;53.072;6.582;2023-08-06T00:57:30;100628.97;;;14.80;82.85
73457;BME280;61691;53.072;6.582;2023-08-06T00:59:57;100632.78;;;14.77;83.30
73457;BME280;61691;53.072;6.582;2023-08-06T01:02:24;100616.47;;;14.72;82.83
73457;BME280;61691;53.072;6.582;2023-08-06T01:04:51;100624.78;;;14.77;83.20
73457;BME280;61691;53.072;6.582;2023-08-06T01:07:28;100626.47;;;14.78;83.05
73457;BME280;61691;53.072;6.582;2023-08-06T01:13:05;100632.81;;;14.85;83.14
73457;BME280;61691;53.072;6.582;2023-08-06T01:15:41;100629.63;;;14.90;83.29
73457;BME280;61691;53.072;6.582;2023-08-06T01:18:09;100627.13;;;14.88;83.15
73457;BME280;61691;53.072;6.582;2023-08-06T01:20:36;100632.13;;;14.91;82.97
73457;BME280;61691;53.072;6.582;2023-08-06T01:23:03;100625.78;;;14.84;83.02
73457;BME280;61691;53.072;6.582;2023-08-06T01:25:33;100634.47;;;14.86;83.29
73457;BME280;61691;53.072;6.582;2023-08-06T01:28:31;100630.81;;;14.87;83.23
73457;BME280;61691;53.072;6.582;2023-08-06T01:31:02;100632.13;;;14.83;83.07
73457;BME280;61691;53.072;6.582;2023-08-06T01:33:30;100613.28;;;14.77;83.05
73457;BME280;61691;53.072;6.582;2023-08-06T01:35:59;100626.63;;;14.85;83.29
73457;BME280;61691;53.072;6.582;2023-08-06T01:38:26;100625.78;;;14.84;83.61
73457;BME280;61691;53.072;6.582;2023-08-06T01:40:54;100608.63;;;14.70;83.30
73457;BME280;61691;53.072;6.582;2023-08-06T01:43:21;100624.78;;;14.77;83.25
73457;BME280;61691;53.072;6.582;2023-08-06T01:45:48;100614.78;;;14.71;83.24
73457;BME280;61691;53.072;6.582;2023-08-06T01:48:14;100595.13;;;14.56;83.54
73457;BME280;61691;53.072;6.582;2023-08-06T01:50:41;100620.97;;;14.71;83.15
73457;BME280;61691;53.072;6.582;2023-08-06T01:53:08;100558.72;;;14.30;83.52
73457;BME280;61691;53.072;6.582;2023-08-06T01:55:35;100580.41;;;14.44;83.56
73457;BME280;61691;53.072;6.582;2023-08-06T01:58:02;100602.59;;;14.60;83.35
73457;BME280;61691;53.072;6.582;2023-08-06T02:00:28;100613.44;;;14.67;83.81
73457;BME280;61691;53.072;6.582;2023-08-06T02:02:55;100583.59;;;14.55;83.68
73457;BME280;61691;53.072;6.582;2023-08-06T02:05:22;100612.81;;;14.73;83.86
73457;BME280;61691;53.072;6.582;2023-08-06T02:07:48;100596.13;;;14.63;83.93
73457;BME280;61691;53.072;6.582;2023-08-06T02:10:15;100596.13;;;14.63;83.72
73457;BME280;61691;53.072;6.582;2023-08-06T02:12:42;100598.09;;;14.61;84.16
73457;BME280;61691;53.072;6.582;2023-08-06T02:15:09;100596.94;;;14.63;83.94
73457;BME280;61691;53.072;6.582;2023-08-06T02:17:35;100586.13;;;14.57;83.82
73457;BME280;61691;53.072;6.582;2023-08-06T02:20:02;100592.44;;;14.64;83.96
73457;BME280;61691;53.072;6.582;2023-08-06T02:22:29;100590.44;;;14.66;84.10
73457;BME280;61691;53.072;6.582;2023-08-06T02:24:56;100588.13;;;14.71;84.08
73457;BME280;61691;53.072;6.582;2023-08-06T02:27:22;100589.78;;;14.72;83.92
73457;BME280;61691;53.072;6.582;2023-08-06T02:29:49;100594.75;;;14.75;84.07
73457;BME280;61691;53.072;6.582;2023-08-06T02:32:16;100593.94;;;14.75;83.74
73457;BME280;61691;53.072;6.582;2023-08-06T02:34:42;100588.13;;;14.71;84.16
73457;BME280;61691;53.072;6.582;2023-08-06T02:37:09;100584.75;;;14.69;84.02
73457;BME280;61691;53.072;6.582;2023-08-06T02:39:36;100560.44;;;14.64;84.15
73457;BME280;61691;53.072;6.582;2023-08-06T02:42:09;100576.09;;;14.75;84.10
73457;BME280;61691;53.072;6.582;2023-08-06T02:44:35;100585.44;;;14.79;84.32
73457;BME280;61691;53.072;6.582;2023-08-06T02:47:02;100553.44;;;14.63;84.14
73457;BME280;61691;53.072;6.582;2023-08-06T02:49:29;100566.75;;;14.71;84.29
73457;BME280;61691;53.072;6.582;2023-08-06T02:51:56;100575.09;;;14.84;84.15
73457;BME280;61691;53.072;6.582;2023-08-06T02:54:22;100566.59;;;14.81;84.32
73457;BME280;61691;53.072;6.582;2023-08-06T02:56:49;100562.44;;;14.78;84.24
73457;BME280;61691;53.072;6.582;2023-08-06T02:59:16;100571.25;;;14.87;84.42
73457;BME280;61691;53.072;6.582;2023-08-06T03:01:43;100574.41;;;14.90;84.45
73457;BME280;61691;53.072;6.582;2023-08-06T03:04:10;100545.25;;;14.81;84.14
73457;BME280;61691;53.072;6.582;2023-08-06T03:06:37;100552.75;;;14.85;84.32
73457;BME280;61691;53.072;6.582;2023-08-06T03:09:03;100548.06;;;14.87;84.40
73457;BME280;61691;53.072;6.582;2023-08-06T03:11:30;100544.56;;;14.87;84.21
73457;BME280;61691;53.072;6.582;2023-08-06T03:13:57;100550.75;;;14.87;84.13
73457;BME280;61691;53.072;6.582;2023-08-06T03:16:23;100543.22;;;14.83;84.04
73457;BME280;61691;53.072;6.582;2023-08-06T03:18:50;100541.75;;;14.88;84.07
73457;BME280;61691;53.072;6.582;2023-08-06T03:21:17;100533.38;;;14.83;84.03
73457;BME280;61691;53.072;6.582;2023-08-06T03:23:46;100531.06;;;14.80;83.84
73457;BME280;61691;53.072;6.582;2023-08-06T03:26:13;100536.72;;;14.85;84.04
73457;BME280;61691;53.072;6.582;2023-08-06T03:28:40;100520.56;;;14.70;83.89
73457;BME280;61691;53.072;6.582;2023-08-06T03:31:06;100534.41;;;14.74;83.99
73457;BME280;61691;53.072;6.582;2023-08-06T03:33:33;100548.25;;;14.86;83.93
73457;BME280;61691;53.072;6.582;2023-08-06T03:36:00;100545.06;;;14.82;83.69
73457;BME280;61691;53.072;6.582;2023-08-06T03:38:27;100535.75;;;14.78;83.98
73457;BME280;61691;53.072;6.582;2023-08-06T03:40:54;100550.53;;;14.89;83.88
73457;BME280;61691;53.072;6.582;2023-08-06T03:43:21;100523.72;;;14.74;83.59
73457;BME280;61691;53.072;6.582;2023-08-06T03:45:47;100547.72;;;14.82;83.83
73457;BME280;61691;53.072;6.582;2023-08-06T03:48:14;100503.41;;;14.57;84.12
73457;BME280;61691;53.072;6.582;2023-08-06T03:50:41;100540.25;;;14.78;83.70
73457;BME280;61691;53.072;6.582;2023-08-06T03:53:07;100547.91;;;14.81;83.76
73457;BME280;61691;53.072;6.582;2023-08-06T03:55:34;100551.75;;;14.78;83.72
73457;BME280;61691;53.072;6.582;2023-08-06T03:58:01;100551.06;;;14.76;83.93
73457;BME280;61691;53.072;6.582;2023-08-06T04:00:27;100538.75;;;14.67;83.54
73457;BME280;61691;53.072;6.582;2023-08-06T04:02:54;100554.09;;;14.73;83.87
73457;BME280;61691;53.072;6.582;2023-08-06T04:05:21;100542.09;;;14.69;83.66
73457;BME280;61691;53.072;6.582;2023-08-06T04:07:48;100550.75;;;14.71;84.06
73457;BME280;61691;53.072;6.582;2023-08-06T04:10:14;100517.09;;;14.54;84.00
73457;BME280;61691;53.072;6.582;2023-08-06T04:12:41;100542.09;;;14.69;83.76
73457;BME280;61691;53.072;6.582;2023-08-06T04:15:08;100541.09;;;14.70;83.88
73457;BME280;61691;53.072;6.582;2023-08-06T04:17:35;100531.09;;;14.64;83.83
73457;BME280;61691;53.072;6.582;2023-08-06T04:20:01;100539.72;;;14.74;83.87
73457;BME280;61691;53.072;6.582;2023-08-06T04:22:29;100517.41;;;14.59;83.76
73457;BME280;61691;53.072;6.582;2023-08-06T04:24:55;100553.91;;;14.83;83.59
73457;BME280;61691;53.072;6.582;2023-08-06T04:27:22;100543.38;;;14.81;83.69
73457;BME280;61691;53.072;6.582;2023-08-06T04:29:49;100544.06;;;14.83;83.91
73457;BME280;61691;53.072;6.582;2023-08-06T04:32:15;100552.06;;;14.83;83.72
73457;BME280;61691;53.072;6.582;2023-08-06T04:34:42;100522.41;;;14.62;83.65
73457;BME280;61691;53.072;6.582;2023-08-06T04:37:09;100543.91;;;14.77;83.63
73457;BME280;61691;53.072;6.582;2023-08-06T04:39:36;100548.09;;;14.79;83.30
73457;BME280;61691;53.072;6.582;2023-08-06T04:42:03;100565.91;;;14.87;83.09
73457;BME280;61691;53.072;6.582;2023-08-06T04:44:30;100529.88;;;14.75;83.36
73457;BME280;61691;53.072;6.582;2023-08-06T04:46:56;100534.91;;;14.78;83.57
73457;BME280;61691;53.072;6.582;2023-08-06T04:49:24;100534.06;;;14.77;83.31
73457;BME280;61691;53.072;6.582;2023-08-06T04:51:51;100534.38;;;14.82;83.66
73457;BME280;61691;53.072;6.582;2023-08-06T04:54:18;100562.41;;;14.94;83.20
73457;BME280;61691;53.072;6.582;2023-08-06T04:56:44;100538.06;;;14.81;83.50
73457;BME280;61691;53.072;6.582;2023-08-06T04:59:11;100552.06;;;14.91;83.28
73457;BME280;61691;53.072;6.582;2023-08-06T05:01:38;100540.06;;;14.87;83.50
73457;BME280;61691;53.072;6.582;2023-08-06T05:04:05;100542.72;;;14.95;83.84
73457;BME280;61691;53.072;6.582;2023-08-06T05:06:31;100555.38;;;15.09;83.31
73457;BME280;61691;53.072;6.582;2023-08-06T05:08:58;100535.19;;;15.62;85.01
73457;BME280;61691;53.072;6.582;2023-08-06T05:11:25;100562.59;;;16.63;85.35
73457;BME280;61691;53.072;6.582;2023-08-06T05:13:52;100562.50;;;17.38;84.06
73457;BME280;61691;53.072;6.582;2023-08-06T05:16:18;100551.59;;;17.69;82.32
73457;BME280;61691;53.072;6.582;2023-08-06T05:18:45;100560.16;;;17.94;80.89
73457;BME280;61691;53.072;6.582;2023-08-06T05:21:12;100547.09;;;17.91;79.96
73457;BME280;61691;53.072;6.582;2023-08-06T05:23:39;100546.97;;;17.78;78.95
73457;BME280;61691;53.072;6.582;2023-08-06T05:26:05;100530.34;;;17.38;78.78
73457;BME280;61691;53.072;6.582;2023-08-06T05:28:32;100525.56;;;17.19;78.38
73457;BME280;61691;53.072;6.582;2023-08-06T05:31:03;100537.94;;;17.20;78.19
73457;BME280;61691;53.072;6.582;2023-08-06T05:33:30;100546.06;;;17.12;77.38
73457;BME280;61691;53.072;6.582;2023-08-06T05:35:57;100561.75;;;17.15;77.64
73457;BME280;61691;53.072;6.582;2023-08-06T05:38:24;100571.28;;;17.47;78.35
73457;BME280;61691;53.072;6.582;2023-08-06T05:40:50;100579.06;;;17.71;77.19
73457;BME280;61691;53.072;6.582;2023-08-06T05:43:17;100579.25;;;17.70;76.55
73457;BME280;61691;53.072;6.582;2023-08-06T05:45:45;100573.03;;;17.55;75.76
73457;BME280;61691;53.072;6.582;2023-08-06T05:48:13;100573.59;;;17.35;75.65
73457;BME280;61691;53.072;6.582;2023-08-06T05:50:39;100558.91;;;17.17;75.32
73457;BME280;61691;53.072;6.582;2023-08-06T05:53:06;100550.84;;;17.02;75.32
73457;BME280;61691;53.072;6.582;2023-08-06T05:55:33;100576.44;;;17.05;75.09
73457;BME280;61691;53.072;6.582;2023-08-06T05:58:02;100583.34;;;16.99;75.13
73457;BME280;61691;53.072;6.582;2023-08-06T06:00:29;100541.84;;;16.66;75.36
73457;BME280;61691;53.072;6.582;2023-08-06T06:02:56;100592.03;;;17.01;75.35
73457;BME280;61691;53.072;6.582;2023-08-06T06:05:23;100573.56;;;16.91;75.14
73457;BME280;61691;53.072;6.582;2023-08-06T06:07:49;100580.03;;;16.97;75.29
73457;BME280;61691;53.072;6.582;2023-08-06T06:10:16;100601.31;;;17.13;75.08
73457;BME280;61691;53.072;6.582;2023-08-06T06:12:43;100549.34;;;16.85;75.02
73457;BME280;61691;53.072;6.582;2023-08-06T06:15:10;100600.84;;;17.24;74.92
73457;BME280;61691;53.072;6.582;2023-08-06T06:17:37;100591.13;;;17.23;74.85
73457;BME280;61691;53.072;6.582;2023-08-06T06:20:04;100585.41;;;17.26;74.68
73457;BME280;61691;53.072;6.582;2023-08-06T06:22:31;100599.66;;;17.41;74.46
73457;BME280;61691;53.072;6.582;2023-08-06T06:24:58;100594.66;;;17.38;74.10
73457;BME280;61691;53.072;6.582;2023-08-06T06:27:24;100593.19;;;17.36;74.04
73457;BME280;61691;53.072;6.582;2023-08-06T06:29:51;100600.09;;;17.45;74.36
73457;BME280;61691;53.072;6.582;2023-08-06T06:32:19;100590.59;;;17.42;73.84
73457;BME280;61691;53.072;6.582;2023-08-06T06:34:45;100581.91;;;17.40;73.65
73457;BME280;61691;53.072;6.582;2023-08-06T06:37:12;100598.25;;;17.46;74.05
73457;BME280;61691;53.072;6.582;2023-08-06T06:39:39;100595.03;;;17.35;73.96
73457;BME280;61691;53.072;6.582;2023-08-06T06:42:05;100607.97;;;17.47;74.17
73457;BME280;61691;53.072;6.582;2023-08-06T06:44:32;100584.94;;;17.37;74.04
73457;BME280;61691;53.072;6.582;2023-08-06T06:46:59;100605.28;;;17.47;74.28
73457;BME280;61691;53.072;6.582;2023-08-06T06:49:26;100612.56;;;17.53;74.02
73457;BME280;61691;53.072;6.582;2023-08-06T06:51:52;100597.72;;;17.50;73.72
73457;BME280;61691;53.072;6.582;2023-08-06T06:54:20;100595.03;;;17.50;73.75
73457;BME280;61691;53.072;6.582;2023-08-06T06:56:46;100614.84;;;17.64;73.54
73457;BME280;61691;53.072;6.582;2023-08-06T06:59:13;100558.25;;;17.29;73.51
73457;BME280;61691;53.072;6.582;2023-08-06T07:01:40;100590.97;;;17.39;73.46
73457;BME280;61691;53.072;6.582;2023-08-06T07:04:06;100617.94;;;17.53;73.99
73457;BME280;61691;53.072;6.582;2023-08-06T07:06:33;100615.91;;;17.55;74.27
73457;BME280;61691;53.072;6.582;2023-08-06T07:09:00;100602.69;;;17.53;74.28
73457;BME280;61691;53.072;6.582;2023-08-06T07:11:26;100596.41;;;17.46;74.08
73457;BME280;61691;53.072;6.582;2023-08-06T07:13:57;100622.22;;;17.62;73.96
73457;BME280;61691;53.072;6.582;2023-08-06T07:16:27;100598.91;;;17.48;74.12
73457;BME280;61691;53.072;6.582;2023-08-06T07:18:54;100606.84;;;17.56;74.35
73457;BME280;61691;53.072;6.582;2023-08-06T07:21:21;100624.91;;;17.76;74.38
73457;BME280;61691;53.072;6.582;2023-08-06T07:23:48;100593.38;;;17.78;74.43
73457;BME280;61691;53.072;6.582;2023-08-06T07:26:17;100589.19;;;17.91;74.37
73457;BME280;61691;53.072;6.582;2023-08-06T07:28:43;100603.09;;;18.15;74.16
73457;BME280;61691;53.072;6.582;2023-08-06T07:31:11;100605.19;;;18.20;73.50
73457;BME280;61691;53.072;6.582;2023-08-06T07:33:38;100594.03;;;18.16;73.24
73457;BME280;61691;53.072;6.582;2023-08-06T07:36:13;100611.16;;;18.15;73.05
73457;BME280;61691;53.072;6.582;2023-08-06T07:38:41;100610.78;;;18.18;73.33
73457;BME280;61691;53.072;6.582;2023-08-06T07:41:08;100612.06;;;18.23;73.12
73457;BME280;61691;53.072;6.582;2023-08-06T07:43:35;100611.56;;;18.34;73.39
73457;BME280;61691;53.072;6.582;2023-08-06T07:46:02;100619.63;;;18.55;73.17
73457;BME280;61691;53.072;6.582;2023-08-06T07:48:29;100618.13;;;18.67;73.25
73457;BME280;61691;53.072;6.582;2023-08-06T07:50:56;100585.47;;;18.91;73.80
73457;BME280;61691;53.072;6.582;2023-08-06T07:53:25;100619.13;;;19.43;72.49
73457;BME280;61691;53.072;6.582;2023-08-06T07:55:56;100616.31;;;19.51;70.87
73457;BME280;61691;53.072;6.582;2023-08-06T07:58:24;100571.38;;;19.17;70.50
73457;BME280;61691;53.072;6.582;2023-08-06T08:00:51;100611.22;;;19.35;70.15
73457;BME280;61691;53.072;6.582;2023-08-06T08:03:18;100578.00;;;19.15;70.51
73457;BME280;61691;53.072;6.582;2023-08-06T08:05:46;100613.66;;;19.30;69.53
73457;BME280;61691;53.072;6.582;2023-08-06T08:08:14;100587.47;;;19.11;69.33
73457;BME280;61691;53.072;6.582;2023-08-06T08:10:42;100590.41;;;19.16;70.13
73457;BME280;61691;53.072;6.582;2023-08-06T08:13:08;100608.25;;;19.51;69.86
73457;BME280;61691;53.072;6.582;2023-08-06T08:15:36;100611.16;;;19.56;69.28
73457;BME280;61691;53.072;6.582;2023-08-06T08:18:03;100587.66;;;19.37;67.96
73457;BME280;61691;53.072;6.582;2023-08-06T08:20:30;100585.50;;;19.26;67.93
73457;BME280;61691;53.072;6.582;2023-08-06T08:22:59;100607.50;;;19.36;67.96
73457;BME280;61691;53.072;6.582;2023-08-06T08:25:27;100608.28;;;19.30;67.87
73457;BME280;61691;53.072;6.582;2023-08-06T08:27:57;100615.31;;;19.31;68.14
73457;BME280;61691;53.072;6.582;2023-08-06T08:30:24;100591.72;;;19.26;68.02
73457;BME280;61691;53.072;6.582;2023-08-06T08:32:52;100606.31;;;19.45;68.14
73457;BME280;61691;53.072;6.582;2023-08-06T08:35:19;100598.53;;;19.57;68.69
73457;BME280;61691;53.072;6.582;2023-08-06T08:37:45;100598.66;;;19.77;68.16
73457;BME280;61691;53.072;6.582;2023-08-06T08:40:14;100577.16;;;19.77;68.28
73457;BME280;61691;53.072;6.582;2023-08-06T08:42:42;100596.03;;;19.96;67.75
73457;BME280;61691;53.072;6.582;2023-08-06T08:45:15;100589.16;;;19.81;67.04
73457;BME280;61691;53.072;6.582;2023-08-06T08:47:42;100608.63;;;19.83;67.19
73457;BME280;61691;53.072;6.582;2023-08-06T08:50:14;100590.78;;;19.75;67.49
73457;BME280;61691;53.072;6.582;2023-08-06T08:52:42;100576.34;;;19.83;67.72
73457;BME280;61691;53.072;6.582;2023-08-06T08:55:14;100568.09;;;19.91;67.79
73457;BME280;61691;53.072;6.582;2023-08-06T08:57:41;100594.72;;;20.33;67.10
73457;BME280;61691;53.072;6.582;2023-08-06T09:00:08;100587.69;;;20.45;66.51
73457;BME280;61691;53.072;6.582;2023-08-06T09:02:36;100591.47;;;20.64;66.66
73457;BME280;61691;53.072;6.582;2023-08-06T09:05:04;100595.63;;;20.80;66.04
73457;BME280;61691;53.072;6.582;2023-08-06T09:07:42;100593.56;;;20.82;65.41
73457;BME280;61691;53.072;6.582;2023-08-06T09:10:14;100584.84;;;20.80;64.80
73457;BME280;61691;53.072;6.582;2023-08-06T09:12:45;100576.94;;;20.85;64.78
73457;BME280;61691;53.072;6.582;2023-08-06T09:15:12;100589.38;;;21.12;64.28
73457;BME280;61691;53.072;6.582;2023-08-06T09:17:39;100596.00;;;21.30;63.54
73457;BME280;61691;53.072;6.582;2023-08-06T09:20:14;100604.31;;;21.21;61.57
73457;BME280;61691;53.072;6.582;2023-08-06T09:22:41;100613.03;;;21.23;62.15
73457;BME280;61691;53.072;6.582;2023-08-06T09:25:08;100608.03;;;21.20;61.50
73457;BME280;61691;53.072;6.582;2023-08-06T09:27:40;100586.47;;;21.14;61.42
73457;BME280;61691;53.072;6.582;2023-08-06T09:30:07;100607.00;;;21.35;61.09
73457;BME280;61691;53.072;6.582;2023-08-06T09:32:47;100620.03;;;21.51;60.21
73457;BME280;61691;53.072;6.582;2023-08-06T09:35:18;100618.13;;;21.58;60.14
73457;BME280;61691;53.072;6.582;2023-08-06T09:37:45;100617.09;;;21.59;59.70
73457;BME280;61691;53.072;6.582;2023-08-06T09:40:33;100623.75;;;21.63;59.77
73457;BME280;61691;53.072;6.582;2023-08-06T09:43:00;100604.28;;;21.48;59.07
73457;BME280;61691;53.072;6.582;2023-08-06T09:45:32;100625.44;;;21.57;59.10
73457;BME280;61691;53.072;6.582;2023-08-06T09:48:04;100618.75;;;21.60;58.32
73457;BME280;61691;53.072;6.582;2023-08-06T09:50:32;100627.06;;;21.58;57.91
73457;BME280;61691;53.072;6.582;2023-08-06T09:53:00;100616.28;;;21.52;57.18
73457;BME280;61691;53.072;6.582;2023-08-06T09:55:27;100621.28;;;21.55;57.41
73457;BME280;61691;53.072;6.582;2023-08-06T09:57:54;100591.41;;;21.50;57.27
73457;BME280;61691;53.072;6.582;2023-08-06T10:00:22;100623.69;;;21.76;56.60
73457;BME280;61691;53.072;6.582;2023-08-06T10:02:50;100623.25;;;21.86;55.75
73457;BME280;61691;53.072;6.582;2023-08-06T10:05:20;100622.63;;;21.84;54.79
73457;BME280;61691;53.072;6.582;2023-08-06T10:07:48;100602.97;;;21.70;55.09
73457;BME280;61691;53.072;6.582;2023-08-06T10:10:15;100587.19;;;21.67;55.19
73457;BME280;61691;53.072;6.582;2023-08-06T10:12:46;100566.72;;;21.53;54.51
73457;BME280;61691;53.072;6.582;2023-08-06T10:15:17;100628.19;;;21.95;54.49
73457;BME280;61691;53.072;6.582;2023-08-06T10:17:47;100619.50;;;21.93;54.18
73457;BME280;61691;53.072;6.582;2023-08-06T10:20:17;100611.63;;;21.85;54.08
73457;BME280;61691;53.072;6.582;2023-08-06T10:22:45;100602.91;;;21.83;54.15
73457;BME280;61691;53.072;6.582;2023-08-06T10:25:16;100615.34;;;21.97;54.96
73457;BME280;61691;53.072;6.582;2023-08-06T10:30:32;100632.34;;;22.05;54.31
73457;BME280;61691;53.072;6.582;2023-08-06T10:33:01;100603.25;;;22.07;54.44
73457;BME280;61691;53.072;6.582;2023-08-06T10:40:37;100621.38;;;22.37;53.16
73457;BME280;61691;53.072;6.582;2023-08-06T10:43:05;100590.56;;;22.14;52.15
73457;BME280;61691;53.072;6.582;2023-08-06T10:45:35;100625.56;;;22.27;52.63
73457;BME280;61691;53.072;6.582;2023-08-06T10:48:03;100622.09;;;22.20;52.21
73457;BME280;61691;53.072;6.582;2023-08-06T10:50:30;100624.56;;;22.21;51.95
73457;BME280;61691;53.072;6.582;2023-08-06T10:53:03;100611.91;;;22.22;52.54
73457;BME280;61691;53.072;6.582;2023-08-06T10:55:31;100621.84;;;22.28;52.11
73457;BME280;61691;53.072;6.582;2023-08-06T10:57:59;100621.78;;;22.34;51.83
73457;BME280;61691;53.072;6.582;2023-08-06T11:00:26;100621.41;;;22.31;51.70
73457;BME280;61691;53.072;6.582;2023-08-06T11:02:53;100600.69;;;22.18;51.71
73457;BME280;61691;53.072;6.582;2023-08-06T11:05:20;100620.84;;;22.22;51.37
73457;BME280;61691;53.072;6.582;2023-08-06T11:07:47;100575.69;;;21.91;51.55
73457;BME280;61691;53.072;6.582;2023-08-06T11:10:16;100612.44;;;21.99;51.40
73457;BME280;61691;53.072;6.582;2023-08-06T11:12:42;100601.25;;;21.82;51.88
73457;BME280;61691;53.072;6.582;2023-08-06T11:15:09;100611.97;;;21.95;52.00
73457;BME280;61691;53.072;6.582;2023-08-06T11:17:39;100615.34;;;21.97;52.16
73457;BME280;61691;53.072;6.582;2023-08-06T11:20:07;100577.81;;;21.76;52.00
73457;BME280;61691;53.072;6.582;2023-08-06T11:22:36;100586.34;;;21.80;51.86
73457;BME280;61691;53.072;6.582;2023-08-06T11:25:04;100597.06;;;21.99;51.87
73457;BME280;61691;53.072;6.582;2023-08-06T11:27:31;100587.09;;;21.93;50.46
73457;BME280;61691;53.072;6.582;2023-08-06T11:29:57;100612.44;;;21.99;50.56
73457;BME280;61691;53.072;6.582;2023-08-06T11:32:24;100595.88;;;21.76;50.19
73457;BME280;61691;53.072;6.582;2023-08-06T11:34:52;100612.63;;;21.91;50.63
73457;BME280;61691;53.072;6.582;2023-08-06T11:37:22;100605.16;;;21.99;50.35
73457;BME280;61691;53.072;6.582;2023-08-06T11:39:51;100607.16;;;22.11;49.32
73457;BME280;61691;53.072;6.582;2023-08-06T11:42:18;100597.00;;;22.13;48.78
73457;BME280;61691;53.072;6.582;2023-08-06T11:44:44;100591.59;;;22.13;48.58
73457;BME280;61691;53.072;6.582;2023-08-06T11:47:14;100605.22;;;22.31;48.80
73457;BME280;61691;53.072;6.582;2023-08-06T11:52:13;100576.50;;;22.36;48.31
73457;BME280;61691;53.072;6.582;2023-08-06T11:54:41;100615.41;;;22.60;48.96
73457;BME280;61691;53.072;6.582;2023-08-06T11:57:08;100602.13;;;22.59;48.94
73457;BME280;61691;53.072;6.582;2023-08-06T11:59:37;100602.16;;;22.52;49.21
73457;BME280;61691;53.072;6.582;2023-08-06T12:02:07;100590.13;;;22.48;49.07
73457;BME280;61691;53.072;6.582;2023-08-06T12:04:57;100617.94;;;22.55;48.45
73457;BME280;61691;53.072;6.582;2023-08-06T12:07:32;100613.63;;;22.48;48.99
73457;BME280;61691;53.072;6.582;2023-08-06T12:09:59;100617.13;;;22.55;49.96
73457;BME280;61691;53.072;6.582;2023-08-06T12:12:26;100597.97;;;22.56;49.36
73457;BME280;61691;53.072;6.582;2023-08-06T12:14:54;100609.38;;;22.58;49.79
73457;BME280;61691;53.072;6.582;2023-08-06T12:17:20;100609.56;;;22.63;49.74
73457;BME280;61691;53.072;6.582;2023-08-06T12:19:47;100612.88;;;22.65;49.69
73457;BME280;61691;53.072;6.582;2023-08-06T12:22:14;100621.13;;;22.70;49.54
73457;BME280;61691;53.072;6.582;2023-08-06T12:24:42;100591.78;;;22.49;48.69
73457;BME280;61691;53.072;6.582;2023-08-06T12:27:10;100614.00;;;22.51;48.18
73457;BME280;61691;53.072;6.582;2023-08-06T12:29:47;100611.31;;;22.51;49.27
73457;BME280;61691;53.072;6.582;2023-08-06T12:32:15;100619.56;;;22.56;49.14
73457;BME280;61691;53.072;6.582;2023-08-06T12:34:42;100617.34;;;22.53;47.89
73457;BME280;61691;53.072;6.582;2023-08-06T12:37:19;100610.94;;;22.41;48.04
73457;BME280;61691;53.072;6.582;2023-08-06T12:39:46;100614.31;;;22.36;48.38
73457;BME280;61691;53.072;6.582;2023-08-06T12:42:13;100622.72;;;22.22;47.83
73457;BME280;61691;53.072;6.582;2023-08-06T12:44:40;100591.41;;;22.08;48.69
73457;BME280;61691;53.072;6.582;2023-08-06T12:47:07;100614.84;;;22.14;48.77
73457;BME280;61691;53.072;6.582;2023-08-06T12:49:34;100624.66;;;22.08;48.55
73457;BME280;61691;53.072;6.582;2023-08-06T12:52:01;100595.06;;;21.75;48.63
73457;BME280;61691;53.072;6.582;2023-08-06T12:54:28;100599.59;;;21.81;48.53
73457;BME280;61691;53.072;6.582;2023-08-06T12:56:55;100605.78;;;21.88;48.65
73457;BME280;61691;53.072;6.582;2023-08-06T12:59:22;100619.03;;;22.03;49.23
73457;BME280;61691;53.072;6.582;2023-08-06T13:01:49;100631.47;;;22.11;49.28
73457;BME280;61691;53.072;6.582;2023-08-06T13:04:16;100624.38;;;22.23;49.71
73457;BME280;61691;53.072;6.582;2023-08-06T13:06:48;100613.09;;;22.32;49.99